createdAt,value
2023-01-20T00:00:38.611Z,1008.71
2023-01-20T00:02:35.462Z,1008.71
2023-01-20T00:04:36.043Z,1008.74
2023-01-20T00:06:35.409Z,1008.74
2023-01-20T00:08:35.914Z,1008.75
2023-01-20T00:10:35.474Z,1008.75
2023-01-20T00:12:35.990Z,1008.78
2023-01-20T00:14:35.535Z,1008.78
2023-01-20T00:16:36.248Z,1008.73
2023-01-20T00:18:35.599Z,1008.73
2023-01-20T00:20:35.267Z,1008.73
2023-01-20T00:22:35.696Z,1008.73
2023-01-20T00:24:35.215Z,1008.83
2023-01-20T00:26:35.824Z,1008.83
2023-01-20T00:28:35.384Z,1008.83
2023-01-20T00:30:36.134Z,1008.83
2023-01-20T00:32:35.411Z,1008.84
2023-01-20T00:34:35.163Z,1008.84
2023-01-20T00:36:35.700Z,1008.79
2023-01-20T00:38:35.347Z,1008.79
2023-01-20T00:40:35.831Z,1008.73
2023-01-20T00:42:35.139Z,1008.73
2023-01-20T00:44:35.857Z,1008.67
2023-01-20T00:46:35.504Z,1008.67
2023-01-20T00:48:35.888Z,1008.79
2023-01-20T00:50:35.309Z,1008.79
2023-01-20T00:52:35.769Z,1008.77
2023-01-20T00:54:35.125Z,1008.77
2023-01-20T00:56:35.707Z,1008.86
2023-01-20T00:58:35.285Z,1008.86
2023-01-20T01:00:38.897Z,1009.01
2023-01-20T01:02:36.264Z,1009.01
2023-01-20T01:04:35.198Z,1008.86
2023-01-20T01:06:35.725Z,1008.86
2023-01-20T01:08:35.290Z,1008.96
2023-01-20T01:10:35.842Z,1008.96
2023-01-20T01:12:35.252Z,1008.92
2023-01-20T01:14:35.871Z,1008.92
2023-01-20T01:16:35.805Z,1008.98
2023-01-20T01:18:35.680Z,1008.98
2023-01-20T01:20:35.247Z,1009.03
2023-01-20T01:22:35.759Z,1009.03
2023-01-20T01:24:35.265Z,1009.08
2023-01-20T01:26:35.711Z,1009.08
2023-01-20T01:28:35.332Z,1009.08
2023-01-20T01:30:36.030Z,1009.08
2023-01-20T01:32:35.334Z,1009.02
2023-01-20T01:34:35.927Z,1009.02
2023-01-20T01:36:35.592Z,1009.15
2023-01-20T01:38:35.212Z,1009.15
2023-01-20T01:40:35.611Z,1009.17
2023-01-20T01:42:35.181Z,1009.17
2023-01-20T01:44:35.711Z,1009.16
2023-01-20T01:46:35.181Z,1009.16
2023-01-20T01:48:35.532Z,1009.18
2023-01-20T01:50:35.209Z,1009.18
2023-01-20T01:52:35.742Z,1009.2
2023-01-20T01:54:35.147Z,1009.2
2023-01-20T01:56:35.589Z,1009.23
2023-01-20T01:58:36.138Z,1009.22
2023-01-20T02:00:39.792Z,1009.22
2023-01-20T02:02:37.837Z,1009.33
2023-01-20T02:04:35.419Z,1009.33
2023-01-20T02:06:35.978Z,1009.31
2023-01-20T02:08:35.459Z,1009.31
2023-01-20T02:10:35.910Z,1009.43
2023-01-20T02:12:35.291Z,1009.43
2023-01-20T02:14:35.803Z,1009.34
2023-01-20T02:16:35.552Z,1009.34
2023-01-20T02:18:35.737Z,1009.33
2023-01-20T02:20:35.344Z,1009.33
2023-01-20T02:22:35.732Z,1009.28
2023-01-20T02:24:35.164Z,1009.28
2023-01-20T02:26:35.757Z,1009.3
2023-01-20T02:28:35.408Z,1009.3
2023-01-20T02:30:36.059Z,1009.24
2023-01-20T02:32:35.365Z,1009.24
2023-01-20T02:34:35.888Z,1009.27
2023-01-20T02:36:35.379Z,1009.27
2023-01-20T02:38:35.758Z,1009.22
2023-01-20T02:40:35.398Z,1009.22
2023-01-20T02:42:35.976Z,1009.21
2023-01-20T02:44:35.337Z,1009.21
2023-01-20T02:46:35.884Z,1009.24
2023-01-20T02:48:35.516Z,1009.24
2023-01-20T02:50:36.050Z,1009.31
2023-01-20T02:52:35.595Z,1009.31
2023-01-20T02:54:36.012Z,1009.2
2023-01-20T02:56:35.270Z,1009.2
2023-01-20T02:58:35.867Z,1009.28
2023-01-20T03:00:38.312Z,1009.28
2023-01-20T03:02:35.766Z,1009.19
2023-01-20T03:04:36.190Z,1009.19
2023-01-20T03:06:35.677Z,1009.32
2023-01-20T03:08:36.022Z,1009.32
2023-01-20T03:10:35.509Z,1009.19
2023-01-20T03:12:36.037Z,1009.19
2023-01-20T03:14:35.517Z,1009.26
2023-01-20T03:16:36.091Z,1009.26
2023-01-20T03:18:35.393Z,1009.02
2023-01-20T03:20:36.055Z,1009.02
2023-01-20T03:22:35.444Z,1009.1
2023-01-20T03:24:35.745Z,1009.1
2023-01-20T03:26:35.259Z,1009.16
2023-01-20T03:28:35.786Z,1009.16
2023-01-20T03:30:35.817Z,1009.19
2023-01-20T03:32:35.814Z,1009.19
2023-01-20T03:34:35.241Z,1009.15
2023-01-20T03:36:35.926Z,1009.15
2023-01-20T03:38:35.358Z,1009.07
2023-01-20T03:40:35.813Z,1009.07
2023-01-20T03:42:35.450Z,1009.2
2023-01-20T03:44:36.009Z,1009.2
2023-01-20T03:46:35.779Z,1009.16
2023-01-20T03:48:35.903Z,1009.16
2023-01-20T03:50:35.454Z,1009.17
2023-01-20T03:52:59.817Z,1009.17
2023-01-20T03:54:35.514Z,1009.03
2023-01-20T03:56:35.303Z,1009.03
2023-01-20T03:58:35.789Z,1009.14
2023-01-20T04:00:41.231Z,1009.14
2023-01-20T04:02:36.435Z,1009.3
2023-01-20T04:04:35.498Z,1009.3
2023-01-20T04:06:35.205Z,1009.3
2023-01-20T04:08:35.581Z,1009.3
2023-01-20T04:10:35.159Z,1009.35
2023-01-20T04:12:35.757Z,1009.35
2023-01-20T04:14:35.191Z,1009.34
2023-01-20T04:16:35.953Z,1009.34
2023-01-20T04:18:35.393Z,1009.32
2023-01-20T04:20:36.061Z,1009.32
2023-01-20T04:22:35.469Z,1009.21
2023-01-20T04:24:35.962Z,1009.21
2023-01-20T04:26:35.544Z,1009.04
2023-01-20T04:28:35.126Z,1009.04
2023-01-20T04:30:35.727Z,1009.07
2023-01-20T04:32:35.275Z,1009.07
2023-01-20T04:34:35.717Z,1009.33
2023-01-20T04:36:35.491Z,1009.33
2023-01-20T04:38:35.911Z,1009.32
2023-01-20T04:40:35.439Z,1009.32
2023-01-20T04:42:36.074Z,1009.44
2023-01-20T04:44:35.606Z,1009.44
2023-01-20T04:46:37.070Z,1009.54
2023-01-20T04:48:35.816Z,1009.54
2023-01-20T04:50:35.613Z,1009.54
2023-01-20T04:52:35.954Z,1009.54
2023-01-20T04:54:35.452Z,1009.44
2023-01-20T04:56:36.054Z,1009.44
2023-01-20T04:58:35.613Z,1009.54
2023-01-20T05:00:38.380Z,1009.54
2023-01-20T05:02:35.759Z,1009.53
2023-01-20T05:04:35.773Z,1009.53
2023-01-20T05:06:35.453Z,1009.45
2023-01-20T05:08:35.846Z,1009.45
2023-01-20T05:10:35.882Z,1009.44
2023-01-20T05:12:35.977Z,1009.44
2023-01-20T05:14:35.465Z,1009.45
2023-01-20T05:16:37.200Z,1009.32
2023-01-20T05:18:35.425Z,1009.32
2023-01-20T05:20:35.946Z,1009.52
2023-01-20T05:22:35.418Z,1009.52
2023-01-20T05:24:35.835Z,1009.46
2023-01-20T05:26:35.566Z,1009.46
2023-01-20T05:28:36.090Z,1009.58
2023-01-20T05:30:35.703Z,1009.58
2023-01-20T05:32:35.874Z,1009.42
2023-01-20T05:34:35.565Z,1009.42
2023-01-20T05:36:35.149Z,1009.53
2023-01-20T05:38:35.735Z,1009.53
2023-01-20T05:40:35.427Z,1009.47
2023-01-20T05:42:35.895Z,1009.47
2023-01-20T05:44:35.418Z,1009.47
2023-01-20T05:46:36.236Z,1009.47
2023-01-20T05:48:35.366Z,1009.41
2023-01-20T05:50:35.977Z,1009.41
2023-01-20T05:52:35.413Z,1009.5
2023-01-20T05:54:35.929Z,1009.5
2023-01-20T05:56:35.460Z,1009.49
2023-01-20T05:58:36.058Z,1009.49
2023-01-20T06:00:40.499Z,1009.65
2023-01-20T06:02:35.435Z,1009.65
2023-01-20T06:04:35.899Z,1009.55
2023-01-20T06:06:35.386Z,1009.55
2023-01-20T06:08:35.946Z,1009.51
2023-01-20T06:10:35.445Z,1009.51
2023-01-20T06:12:35.953Z,1009.57
2023-01-20T06:14:35.413Z,1009.57
2023-01-20T06:16:36.176Z,1009.59
2023-01-20T06:18:35.355Z,1009.59
2023-01-20T06:20:36.028Z,1009.61
2023-01-20T06:22:35.461Z,1009.61
2023-01-20T06:24:35.902Z,1009.75
2023-01-20T06:26:35.567Z,1009.75
2023-01-20T06:28:35.112Z,1009.56
2023-01-20T06:30:35.750Z,1009.56
2023-01-20T06:32:35.311Z,1009.8
2023-01-20T06:34:35.703Z,1009.8
2023-01-20T06:36:35.297Z,1009.65
2023-01-20T06:38:35.615Z,1009.65
2023-01-20T06:40:35.352Z,1009.56
2023-01-20T06:42:35.760Z,1009.56
2023-01-20T06:44:35.330Z,1009.54
2023-01-20T06:46:35.904Z,1009.54
2023-01-20T06:48:35.167Z,1009.6
2023-01-20T06:50:35.977Z,1009.6
2023-01-20T06:52:35.290Z,1009.57
2023-01-20T06:54:35.802Z,1009.57
2023-01-20T06:56:35.484Z,1009.81
2023-01-20T06:58:35.766Z,1009.81
2023-01-20T07:00:38.643Z,1009.91
2023-01-20T07:02:35.737Z,1009.91
2023-01-20T07:04:35.683Z,1009.89
2023-01-20T07:06:35.317Z,1009.89
2023-01-20T07:08:35.687Z,1009.86
2023-01-20T07:10:35.248Z,1009.86
2023-01-20T07:12:35.624Z,1009.85
2023-01-20T07:14:35.204Z,1009.85
2023-01-20T07:16:38.528Z,1009.97
2023-01-20T07:18:35.098Z,1009.97
2023-01-20T07:20:35.769Z,1010.12
2023-01-20T07:22:35.305Z,1010.12
2023-01-20T07:24:35.647Z,1010.11
2023-01-20T07:26:35.995Z,1010.11
2023-01-20T07:28:35.445Z,1010.09
2023-01-20T07:30:36.003Z,1010.09
2023-01-20T07:32:35.531Z,1010.29
2023-01-20T07:34:35.953Z,1010.29
2023-01-20T07:36:35.393Z,1010.33
2023-01-20T07:38:35.670Z,1010.33
2023-01-20T07:40:35.415Z,1010.16
2023-01-20T07:42:35.834Z,1010.16
2023-01-20T07:44:35.142Z,1010.18
2023-01-20T07:46:35.705Z,1010.18
2023-01-20T07:48:36.111Z,1010.1
2023-01-20T07:50:35.631Z,1010.1
2023-01-20T07:52:35.203Z,1010.34
2023-01-20T07:54:35.616Z,1010.34
2023-01-20T07:56:35.281Z,1010.35
2023-01-20T07:58:35.603Z,1010.35
2023-01-20T08:00:38.819Z,1010.39
2023-01-20T08:02:35.343Z,1010.39
2023-01-20T08:04:35.929Z,1010.49
2023-01-20T08:06:36.107Z,1010.49
2023-01-20T08:08:35.418Z,1010.51
2023-01-20T08:10:35.971Z,1010.51
2023-01-20T08:12:35.235Z,1010.58
2023-01-20T08:14:37.721Z,1010.58
2023-01-20T08:16:35.343Z,1010.74
2023-01-20T08:18:35.622Z,1010.74
2023-01-20T08:20:36.179Z,1010.76
2023-01-20T08:22:35.662Z,1010.76
2023-01-20T08:24:35.157Z,1010.67
2023-01-20T08:26:35.736Z,1010.67
2023-01-20T08:28:35.139Z,1010.71
2023-01-20T08:30:35.698Z,1010.71
2023-01-20T08:32:35.918Z,1010.67
2023-01-20T08:34:35.452Z,1010.67
2023-01-20T08:36:35.689Z,1010.68
2023-01-20T08:38:35.093Z,1010.92
2023-01-20T08:40:35.819Z,1010.92
2023-01-20T08:42:36.028Z,1010.81
2023-01-20T08:44:35.406Z,1010.81
2023-01-20T08:46:36.308Z,1010.75
2023-01-20T08:48:35.475Z,1010.75
2023-01-20T08:50:35.958Z,1010.71
2023-01-20T08:52:35.496Z,1010.71
2023-01-20T08:54:35.942Z,1010.82
2023-01-20T08:56:35.353Z,1010.82
2023-01-20T08:58:36.795Z,1010.81
2023-01-20T09:00:38.063Z,1010.81
2023-01-20T09:02:35.863Z,1010.95
2023-01-20T09:04:40.726Z,1010.95
2023-01-20T09:06:35.844Z,1010.84
2023-01-20T09:08:36.113Z,1010.84
2023-01-20T09:10:35.448Z,1010.82
2023-01-20T09:12:35.946Z,1010.82
2023-01-20T09:14:35.194Z,1010.95
2023-01-20T09:16:35.929Z,1010.95
2023-01-20T09:18:35.179Z,1010.99
2023-01-20T09:20:35.659Z,1010.99
2023-01-20T09:22:38.369Z,1010.97
2023-01-20T09:24:35.596Z,1010.97
2023-01-20T09:26:52.238Z,1011.04
2023-01-20T09:28:35.442Z,1011.04
2023-01-20T09:30:35.999Z,1011.17
2023-01-20T09:32:35.649Z,1011.17
2023-01-20T09:34:37.996Z,1011.14
2023-01-20T09:36:35.616Z,1011.14
2023-01-20T09:38:35.747Z,1011.12
2023-01-20T09:40:35.717Z,1011.12
2023-01-20T09:42:35.746Z,1011.12
2023-01-20T09:44:35.299Z,1011.12
2023-01-20T09:46:36.030Z,1011.13
2023-01-20T09:48:35.123Z,1011.13
2023-01-20T09:50:36.020Z,1011.07
2023-01-20T09:52:35.255Z,1011.07
2023-01-20T09:54:35.836Z,1011.2
2023-01-20T09:56:35.209Z,1011.2
2023-01-20T09:58:35.605Z,1011.34
2023-01-20T10:00:42.059Z,1011.34
2023-01-20T10:02:35.269Z,1011.21
2023-01-20T10:04:38.715Z,1011.21
2023-01-20T10:06:35.245Z,1011.22
2023-01-20T10:08:35.541Z,1011.22
2023-01-20T10:10:36.486Z,1011.2
2023-01-20T10:12:35.594Z,1011.2
2023-01-20T10:14:35.116Z,1011.2
2023-01-20T10:16:35.935Z,1011.2
2023-01-20T10:18:35.328Z,1011.25
2023-01-20T10:20:39.280Z,1011.25
2023-01-20T10:22:35.191Z,1011.28
2023-01-20T10:24:35.666Z,1011.28
2023-01-20T10:26:35.274Z,1011.25
2023-01-20T10:28:35.800Z,1011.25
2023-01-20T10:30:35.597Z,1011.41
2023-01-20T10:32:35.877Z,1011.41
2023-01-20T10:34:35.365Z,1011.29
2023-01-20T10:36:35.837Z,1011.29
2023-01-20T10:38:35.370Z,1011.32
2023-01-20T10:40:35.986Z,1011.32
2023-01-20T10:42:35.302Z,1011.23
2023-01-20T10:44:35.753Z,1011.23
2023-01-20T10:46:35.432Z,1011.34
2023-01-20T10:48:35.898Z,1011.34
2023-01-20T10:50:35.623Z,1011.19
2023-01-20T10:52:35.681Z,1011.19
2023-01-20T10:54:35.243Z,1011.23
2023-01-20T10:56:35.897Z,1011.23
2023-01-20T10:58:35.345Z,1011.3
2023-01-20T11:00:39.230Z,1011.3
2023-01-20T11:02:46.758Z,1011.29
2023-01-20T11:04:35.428Z,1011.29
2023-01-20T11:06:35.928Z,1011.33
2023-01-20T11:08:35.522Z,1011.33
2023-01-20T11:10:36.876Z,1011.27
2023-01-20T11:12:36.076Z,1011.27
2023-01-20T11:14:37.503Z,1011.25
2023-01-20T11:16:36.532Z,1011.25
2023-01-20T11:18:35.605Z,1011.16
2023-01-20T11:20:35.182Z,1011.16
2023-01-20T11:22:35.638Z,1011.48
2023-01-20T11:24:35.354Z,1011.48
2023-01-20T11:26:39.338Z,1011.54
2023-01-20T11:28:35.214Z,1011.54
2023-01-20T11:30:36.359Z,1011.37
2023-01-20T11:32:36.660Z,1011.37
2023-01-20T11:34:35.788Z,1011.4
2023-01-20T11:36:35.422Z,1011.4
2023-01-20T11:38:35.884Z,1011.37
2023-01-20T11:40:35.565Z,1011.37
2023-01-20T11:42:36.827Z,1011.4
2023-01-20T11:44:35.337Z,1011.4
2023-01-20T11:46:36.293Z,1011.39
2023-01-20T11:48:38.492Z,1011.39
2023-01-20T11:50:36.601Z,1011.26
2023-01-20T11:52:35.872Z,1011.26
2023-01-20T11:54:37.165Z,1011.1
2023-01-20T11:56:35.927Z,1011.1
2023-01-20T11:58:35.458Z,1011.25
2023-01-20T12:00:40.508Z,1011.18
2023-01-20T12:02:36.240Z,1011.18
2023-01-20T12:04:35.699Z,1011.34
2023-01-20T12:06:35.880Z,1011.34
2023-01-20T12:08:35.589Z,1011.3
2023-01-20T12:10:37.768Z,1011.3
2023-01-20T12:12:35.632Z,1011.37
2023-01-20T12:14:35.307Z,1011.37
2023-01-20T12:16:36.156Z,1011.32
2023-01-20T12:18:35.368Z,1011.32
2023-01-20T12:20:49.245Z,1011.26
2023-01-20T12:22:35.573Z,1011.26
2023-01-20T12:24:53.819Z,1011.24
2023-01-20T12:26:35.617Z,1011.24
2023-01-20T12:28:35.124Z,1011.35
2023-01-20T12:30:36.423Z,1011.35
2023-01-20T12:32:35.289Z,1011.33
2023-01-20T12:34:35.852Z,1011.33
2023-01-20T12:36:36.830Z,1011.29
2023-01-20T12:38:35.846Z,1011.29
2023-01-20T12:40:35.949Z,1011.39
2023-01-20T12:42:36.893Z,1011.39
2023-01-20T12:44:35.607Z,1011.45
2023-01-20T12:46:36.110Z,1011.45
2023-01-20T12:48:35.362Z,1011.54
2023-01-20T12:50:36.237Z,1011.54
2023-01-20T12:52:35.570Z,1011.53
2023-01-20T12:54:48.250Z,1011.53
2023-01-20T12:56:35.710Z,1011.37
2023-01-20T12:58:35.186Z,1011.37
2023-01-20T13:00:38.601Z,1011.47
2023-01-20T13:02:35.263Z,1011.47
2023-01-20T13:04:35.588Z,1011.53
2023-01-20T13:06:35.137Z,1011.53
2023-01-20T13:08:35.767Z,1011.52
2023-01-20T13:10:35.865Z,1011.52
2023-01-20T13:12:35.818Z,1011.57
2023-01-20T13:14:35.369Z,1011.57
2023-01-20T13:16:36.196Z,1011.52
2023-01-20T13:18:35.299Z,1011.52
2023-01-20T13:20:36.266Z,1011.8
2023-01-20T13:22:41.833Z,1011.8
2023-01-20T13:24:35.985Z,1011.7
2023-01-20T13:26:36.614Z,1011.7
2023-01-20T13:28:35.845Z,1011.62
2023-01-20T13:30:35.869Z,1011.62
2023-01-20T13:32:35.918Z,1011.79
2023-01-20T13:34:35.297Z,1011.79
2023-01-20T13:36:35.939Z,1011.77
2023-01-20T13:38:35.142Z,1011.77
2023-01-20T13:40:35.928Z,1011.77
2023-01-20T13:42:35.285Z,1011.77
2023-01-20T13:44:35.909Z,1011.72
2023-01-20T13:46:35.685Z,1011.72
2023-01-20T13:48:35.822Z,1011.86
2023-01-20T13:50:35.399Z,1011.86
2023-01-20T13:52:36.226Z,1011.81
2023-01-20T13:54:35.456Z,1011.81
2023-01-20T13:56:35.971Z,1011.86
2023-01-20T13:58:35.567Z,1011.86
2023-01-20T14:00:39.099Z,1011.88
2023-01-20T14:02:36.314Z,1011.88
2023-01-20T14:04:35.004Z,1011.95
2023-01-20T14:06:36.167Z,1011.95
2023-01-20T14:08:35.176Z,1012.09
2023-01-20T14:10:36.317Z,1012.09
2023-01-20T14:12:35.179Z,1012.11
2023-01-20T14:14:35.822Z,1012.11
2023-01-20T14:16:35.516Z,1012.18
2023-01-20T14:18:35.823Z,1012.18
2023-01-20T14:20:35.446Z,1012.34
2023-01-20T14:22:35.887Z,1012.34
2023-01-20T14:24:35.312Z,1012.57
2023-01-20T14:26:35.775Z,1012.57
2023-01-20T14:28:35.275Z,1012.61
2023-01-20T14:30:36.336Z,1012.61
2023-01-20T14:32:35.422Z,1012.81
2023-01-20T14:34:35.739Z,1012.81
2023-01-20T14:36:35.215Z,1012.92
2023-01-20T14:38:48.220Z,1012.92
2023-01-20T14:40:35.273Z,1013.01
2023-01-20T14:42:35.653Z,1013.01
2023-01-20T14:44:36.077Z,1013.13
2023-01-20T14:46:35.738Z,1013.13
2023-01-20T14:48:55.342Z,1013.21
2023-01-20T14:50:35.889Z,1013.21
2023-01-20T14:52:35.127Z,1013.25
2023-01-20T14:54:35.510Z,1013.25
2023-01-20T14:56:35.333Z,1013.42
2023-01-20T14:58:35.855Z,1013.42
2023-01-20T15:00:40.901Z,1013.52
2023-01-20T15:02:38.460Z,1013.52
2023-01-20T15:04:35.451Z,1013.56
2023-01-20T15:06:36.128Z,1013.56
2023-01-20T15:08:37.731Z,1013.72
2023-01-20T15:10:36.051Z,1013.72
2023-01-20T15:12:35.419Z,1013.94
2023-01-20T15:14:36.045Z,1013.94
2023-01-20T15:16:35.734Z,1014.09
2023-01-20T15:18:35.892Z,1014.09
2023-01-20T15:20:35.871Z,1014.16
2023-01-20T15:22:35.494Z,1014.25
2023-01-20T15:24:35.851Z,1014.25
2023-01-20T15:26:35.282Z,1014.24
2023-01-20T15:28:35.904Z,1014.24
2023-01-20T15:30:36.658Z,1014.39
2023-01-20T15:32:35.959Z,1014.39
2023-01-20T15:34:35.567Z,1014.59
2023-01-20T15:36:36.048Z,1014.59
2023-01-20T15:38:35.510Z,1014.7
2023-01-20T15:40:36.500Z,1014.7
2023-01-20T15:42:35.429Z,1014.97
2023-01-20T15:44:36.205Z,1014.97
2023-01-20T15:46:35.536Z,1014.94
2023-01-20T15:48:36.054Z,1014.94
2023-01-20T15:50:36.163Z,1015.12
2023-01-20T15:52:35.859Z,1015.12
2023-01-20T15:54:35.302Z,1015.16
2023-01-20T15:56:36.012Z,1015.16
2023-01-20T15:58:35.458Z,1015.32
2023-01-20T16:00:38.472Z,1015.32
2023-01-20T16:02:36.243Z,1015.36
2023-01-20T16:04:35.507Z,1015.36
2023-01-20T16:06:36.011Z,1015.52
2023-01-20T16:08:35.476Z,1015.52
2023-01-20T16:10:36.332Z,1015.54
2023-01-20T16:12:35.611Z,1015.54
2023-01-20T16:14:36.054Z,1015.82
2023-01-20T16:16:35.829Z,1015.82
2023-01-20T16:18:35.832Z,1015.83
2023-01-20T16:20:35.241Z,1015.83
2023-01-20T16:22:35.820Z,1016.05
2023-01-20T16:24:35.458Z,1016.05
2023-01-20T16:26:35.202Z,1016.26
2023-01-20T16:28:35.525Z,1016.26
2023-01-20T16:30:35.988Z,1016.25
2023-01-20T16:32:37.232Z,1016.25
2023-01-20T16:34:35.533Z,1016.5
2023-01-20T16:36:36.023Z,1016.5
2023-01-20T16:38:38.020Z,1016.53
2023-01-20T16:40:36.057Z,1016.53
2023-01-20T16:42:35.286Z,1016.76
2023-01-20T16:44:35.824Z,1016.76
2023-01-20T16:46:35.621Z,1016.85
2023-01-20T16:48:35.937Z,1016.85
2023-01-20T16:50:35.591Z,1016.8
2023-01-20T16:52:35.885Z,1016.8
2023-01-20T16:54:35.317Z,1017.07
2023-01-20T16:56:35.990Z,1017.07
2023-01-20T16:58:35.481Z,1017.14
2023-01-20T17:00:40.906Z,1017.14
2023-01-20T17:02:35.425Z,1017.2
2023-01-20T17:04:35.724Z,1017.2
2023-01-20T17:06:35.253Z,1017.18
2023-01-20T17:08:35.625Z,1017.18
2023-01-20T17:10:35.271Z,1017.35
2023-01-20T17:12:35.782Z,1017.35
2023-01-20T17:14:35.260Z,1017.54
2023-01-20T17:16:36.273Z,1017.54
2023-01-20T17:18:35.522Z,1017.8
2023-01-20T17:20:36.633Z,1017.8
2023-01-20T17:22:35.742Z,1017.8
2023-01-20T17:24:35.308Z,1017.8
2023-01-20T17:26:35.786Z,1017.96
2023-01-20T17:28:35.319Z,1017.96
2023-01-20T17:30:38.004Z,1017.97
2023-01-20T17:32:35.755Z,1017.97
2023-01-20T17:34:35.261Z,1018.17
2023-01-20T17:36:35.619Z,1018.17
2023-01-20T17:38:35.189Z,1018.24
2023-01-20T17:40:36.112Z,1018.24
2023-01-20T17:42:35.582Z,1018.42
2023-01-20T17:44:36.018Z,1018.42
2023-01-20T17:46:35.641Z,1018.41
2023-01-20T17:48:38.499Z,1018.41
2023-01-20T17:50:35.661Z,1018.57
2023-01-20T17:52:35.094Z,1018.57
2023-01-20T17:54:38.009Z,1018.59
2023-01-20T17:56:46.478Z,1018.59
2023-01-20T17:58:35.560Z,1018.79
2023-01-20T18:00:39.287Z,1018.79
2023-01-20T18:02:35.637Z,1018.84
2023-01-20T18:04:36.069Z,1018.84
2023-01-20T18:06:35.562Z,1018.99
2023-01-20T18:08:35.960Z,1018.99
2023-01-20T18:10:35.627Z,1019.03
2023-01-20T18:12:36.135Z,1019.03
2023-01-20T18:14:35.510Z,1019.26
2023-01-20T18:16:35.467Z,1019.26
2023-01-20T18:18:35.604Z,1019.23
2023-01-20T18:20:36.459Z,1019.23
2023-01-20T18:22:35.693Z,1019.4
2023-01-20T18:24:36.110Z,1019.4
2023-01-20T18:26:35.718Z,1019.67
2023-01-20T18:28:35.980Z,1019.67
2023-01-20T18:30:35.526Z,1019.65
2023-01-20T18:32:35.974Z,1019.65
2023-01-20T18:34:35.442Z,1019.68
2023-01-20T18:36:37.616Z,1019.68
2023-01-20T18:38:35.398Z,1019.76
2023-01-20T18:40:36.073Z,1019.76
2023-01-20T18:42:35.484Z,1019.83
2023-01-20T18:44:36.023Z,1019.83
2023-01-20T18:46:35.861Z,1020
2023-01-20T18:48:35.286Z,1020.08
2023-01-20T18:50:35.679Z,1020.08
2023-01-20T18:52:35.115Z,1020.09
2023-01-20T18:54:35.647Z,1020.09
2023-01-20T18:56:35.080Z,1020.19
2023-01-20T18:58:35.423Z,1020.19
2023-01-20T19:00:39.142Z,1020.04
2023-01-20T19:02:36.007Z,1020.04
2023-01-20T19:04:35.465Z,1020.29
2023-01-20T19:06:35.618Z,1020.29
2023-01-20T19:08:36.379Z,1020.29
2023-01-20T19:10:35.524Z,1020.29
2023-01-20T19:12:36.145Z,1020.39
2023-01-20T19:14:35.315Z,1020.39
2023-01-20T19:16:35.940Z,1020.48
2023-01-20T19:18:35.136Z,1020.48
2023-01-20T19:20:35.684Z,1020.58
2023-01-20T19:22:35.095Z,1020.58
2023-01-20T19:24:35.626Z,1020.72
2023-01-20T19:26:36.029Z,1020.72
2023-01-20T19:28:35.387Z,1020.86
2023-01-20T19:30:35.961Z,1020.86
2023-01-20T19:32:35.477Z,1021.03
2023-01-20T19:34:35.789Z,1021.03
2023-01-20T19:36:35.238Z,1021
2023-01-20T19:38:35.663Z,1021
2023-01-20T19:40:35.223Z,1021.08
2023-01-20T19:42:37.164Z,1021.08
2023-01-20T19:44:35.867Z,1021.28
2023-01-20T19:46:35.826Z,1021.28
2023-01-20T19:48:35.837Z,1021.32
2023-01-20T19:50:35.293Z,1021.32
2023-01-20T19:52:35.573Z,1021.38
2023-01-20T19:54:35.944Z,1021.38
2023-01-20T19:56:35.481Z,1021.44
2023-01-20T19:58:35.860Z,1021.44
2023-01-20T20:00:38.760Z,1021.55
2023-01-20T20:02:35.564Z,1021.55
2023-01-20T20:04:35.914Z,1021.75
2023-01-20T20:06:35.434Z,1021.75
2023-01-20T20:08:36.102Z,1021.72
2023-01-20T20:10:35.466Z,1021.72
2023-01-20T20:12:35.996Z,1021.65
2023-01-20T20:14:35.332Z,1021.65
2023-01-20T20:16:35.991Z,1021.83
2023-01-20T20:18:38.167Z,1021.83
2023-01-20T20:20:35.856Z,1021.91
2023-01-20T20:22:35.392Z,1021.91
2023-01-20T20:24:35.974Z,1021.85
2023-01-20T20:26:35.468Z,1021.85
2023-01-20T20:28:35.874Z,1021.83
2023-01-20T20:30:35.369Z,1021.83
2023-01-20T20:32:38.660Z,1022.01
2023-01-20T20:34:35.375Z,1022.01
2023-01-20T20:36:35.813Z,1021.93
2023-01-20T20:38:35.108Z,1021.93
2023-01-20T20:40:35.742Z,1022.1
2023-01-20T20:42:35.144Z,1022.1
2023-01-20T20:44:35.804Z,1022.22
2023-01-20T20:46:35.292Z,1022.22
2023-01-20T20:48:35.653Z,1022.31
2023-01-20T20:50:35.313Z,1022.31
2023-01-20T20:52:35.827Z,1022.31
2023-01-20T20:54:35.491Z,1022.31
2023-01-20T20:56:35.953Z,1022.59
2023-01-20T20:58:35.247Z,1022.59
2023-01-20T21:00:40.690Z,1022.63
2023-01-20T21:02:35.723Z,1022.63
2023-01-20T21:04:35.133Z,1022.76
2023-01-20T21:06:35.665Z,1022.76
2023-01-20T21:08:35.086Z,1022.72
2023-01-20T21:10:35.686Z,1022.72
2023-01-20T21:12:35.387Z,1022.84
2023-01-20T21:14:35.797Z,1022.84
2023-01-20T21:16:35.688Z,1022.84
2023-01-20T21:18:35.922Z,1022.84
2023-01-20T21:20:35.392Z,1022.95
2023-01-20T21:22:35.900Z,1022.95
2023-01-20T21:24:35.448Z,1023.06
2023-01-20T21:26:35.122Z,1023.06
2023-01-20T21:28:35.659Z,1023.13
2023-01-20T21:30:35.222Z,1023.13
2023-01-20T21:32:35.735Z,1023.24
2023-01-20T21:34:35.379Z,1023.24
2023-01-20T21:36:35.681Z,1023.37
2023-01-20T21:38:35.201Z,1023.37
2023-01-20T21:40:36.122Z,1023.58
2023-01-20T21:42:35.424Z,1023.58
2023-01-20T21:44:35.873Z,1023.75
2023-01-20T21:46:38.420Z,1023.75
2023-01-20T21:48:36.009Z,1023.82
2023-01-20T21:50:35.389Z,1023.82
2023-01-20T21:52:35.909Z,1023.91
2023-01-20T21:54:35.282Z,1023.91
2023-01-20T21:56:35.857Z,1024
2023-01-20T21:58:35.354Z,1024
2023-01-20T22:00:38.780Z,1024.13
2023-01-20T22:02:36.292Z,1024.13
2023-01-20T22:04:35.412Z,1024.16
2023-01-20T22:06:36.013Z,1024.16
2023-01-20T22:08:35.324Z,1024.18
2023-01-20T22:10:36.312Z,1024.23
2023-01-20T22:12:35.573Z,1024.23
2023-01-20T22:14:36.088Z,1024.3
2023-01-20T22:16:35.918Z,1024.3
2023-01-20T22:18:35.307Z,1024.23
2023-01-20T22:20:35.881Z,1024.23
2023-01-20T22:22:37.845Z,1024.46
2023-01-20T22:24:35.979Z,1024.46
2023-01-20T22:26:35.416Z,1024.53
2023-01-20T22:28:35.913Z,1024.53
2023-01-20T22:30:35.652Z,1024.54
2023-01-20T22:32:35.213Z,1024.54
2023-01-20T22:34:38.134Z,1024.57
2023-01-20T22:36:35.282Z,1024.57
2023-01-20T22:38:35.947Z,1024.67
2023-01-20T22:40:35.489Z,1024.67
2023-01-20T22:42:35.920Z,1024.71
2023-01-20T22:44:35.415Z,1024.71
2023-01-20T22:46:36.160Z,1024.87
2023-01-20T22:48:35.551Z,1024.87
2023-01-20T22:50:37.330Z,1024.88
2023-01-20T22:52:35.992Z,1024.88
2023-01-20T22:54:35.528Z,1024.97
2023-01-20T22:56:35.997Z,1024.97
2023-01-20T22:58:35.331Z,1024.88
2023-01-20T23:00:40.611Z,1024.88
2023-01-20T23:02:36.058Z,1024.99
2023-01-20T23:04:35.521Z,1024.99
2023-01-20T23:06:36.025Z,1025.09
2023-01-20T23:08:35.413Z,1025.09
2023-01-20T23:10:36.105Z,1025.08
2023-01-20T23:12:35.589Z,1025.08
2023-01-20T23:14:35.026Z,1025.09
2023-01-20T23:16:35.885Z,1025.09
2023-01-20T23:18:35.425Z,1025.11
2023-01-20T23:20:36.052Z,1025.11
2023-01-20T23:22:35.463Z,1025.16
2023-01-20T23:24:35.165Z,1025.16
2023-01-20T23:26:35.742Z,1025.27
2023-01-20T23:28:35.409Z,1025.27
2023-01-20T23:30:36.442Z,1025.26
2023-01-20T23:32:35.760Z,1025.26
2023-01-20T23:34:35.163Z,1025.4
2023-01-20T23:36:35.663Z,1025.4
2023-01-20T23:38:35.165Z,1025.46
2023-01-20T23:40:35.954Z,1025.46
2023-01-20T23:42:35.477Z,1025.6
2023-01-20T23:44:36.005Z,1025.6
2023-01-20T23:46:35.822Z,1025.51
2023-01-20T23:48:35.226Z,1025.51
2023-01-20T23:50:35.749Z,1025.63
2023-01-20T23:52:35.236Z,1025.63
2023-01-20T23:54:35.821Z,1025.71
2023-01-20T23:56:35.390Z,1025.71
2023-01-20T23:58:35.807Z,1025.68
